sensor_id;sensor_type;location;lat;lon;timestamp;P1;durP1;ratioP1;P2;durP2;ratioP2
14294;SDS011;7231;59.370;18.016;2022-08-25T00:00:15;2.92;;;1.55;;
14294;SDS011;7231;59.370;18.016;2022-08-25T00:02:44;4.50;;;1.55;;
14294;SDS011;7231;59.370;18.016;2022-08-25T00:05:22;2.97;;;1.42;;
14294;SDS011;7231;59.370;18.016;2022-08-25T00:07:54;2.38;;;1.25;;
14294;SDS011;7231;59.370;18.016;2022-08-25T00:10:22;2.85;;;1.45;;
14294;SDS011;7231;59.370;18.016;2022-08-25T00:12:50;3.35;;;1.33;;
14294;SDS011;7231;59.370;18.016;2022-08-25T00:15:21;3.95;;;1.65;;
14294;SDS011;7231;59.370;18.016;2022-08-25T00:17:50;2.25;;;1.20;;
14294;SDS011;7231;59.370;18.016;2022-08-25T00:20:18;4.05;;;1.40;;
14294;SDS011;7231;59.370;18.016;2022-08-25T00:22:49;2.15;;;1.30;;
14294;SDS011;7231;59.370;18.016;2022-08-25T00:25:17;4.75;;;1.40;;
14294;SDS011;7231;59.370;18.016;2022-08-25T00:27:45;3.97;;;1.50;;
14294;SDS011;7231;59.370;18.016;2022-08-25T00:30:14;2.95;;;1.40;;
14294;SDS011;7231;59.370;18.016;2022-08-25T00:32:43;2.85;;;1.30;;
14294;SDS011;7231;59.370;18.016;2022-08-25T00:35:23;3.42;;;1.25;;
14294;SDS011;7231;59.370;18.016;2022-08-25T00:37:54;5.45;;;1.70;;
14294;SDS011;7231;59.370;18.016;2022-08-25T00:40:22;3.30;;;1.65;;
14294;SDS011;7231;59.370;18.016;2022-08-25T00:42:52;12.40;;;1.80;;
14294;SDS011;7231;59.370;18.016;2022-08-25T00:45:21;5.85;;;1.70;;
14294;SDS011;7231;59.370;18.016;2022-08-25T00:47:50;7.65;;;2.05;;
14294;SDS011;7231;59.370;18.016;2022-08-25T00:50:18;6.35;;;1.95;;
14294;SDS011;7231;59.370;18.016;2022-08-25T00:52:48;9.35;;;2.20;;
14294;SDS011;7231;59.370;18.016;2022-08-25T00:55:21;10.80;;;2.75;;
14294;SDS011;7231;59.370;18.016;2022-08-25T00:57:54;6.15;;;2.30;;
14294;SDS011;7231;59.370;18.016;2022-08-25T01:00:26;5.35;;;1.60;;
14294;SDS011;7231;59.370;18.016;2022-08-25T01:02:57;11.95;;;1.98;;
14294;SDS011;7231;59.370;18.016;2022-08-25T01:05:27;9.65;;;2.20;;
14294;SDS011;7231;59.370;18.016;2022-08-25T01:07:55;6.45;;;1.65;;
14294;SDS011;7231;59.370;18.016;2022-08-25T01:10:33;8.80;;;1.88;;
14294;SDS011;7231;59.370;18.016;2022-08-25T01:13:05;6.13;;;1.77;;
14294;SDS011;7231;59.370;18.016;2022-08-25T01:15:42;5.63;;;2.05;;
14294;SDS011;7231;59.370;18.016;2022-08-25T01:18:10;8.18;;;1.85;;
14294;SDS011;7231;59.370;18.016;2022-08-25T01:20:39;8.27;;;1.90;;
14294;SDS011;7231;59.370;18.016;2022-08-25T01:23:08;4.57;;;1.80;;
14294;SDS011;7231;59.370;18.016;2022-08-25T01:25:39;6.15;;;1.67;;
14294;SDS011;7231;59.370;18.016;2022-08-25T01:28:12;8.07;;;2.40;;
14294;SDS011;7231;59.370;18.016;2022-08-25T01:30:41;5.32;;;1.75;;
14294;SDS011;7231;59.370;18.016;2022-08-25T01:33:09;10.05;;;1.75;;
14294;SDS011;7231;59.370;18.016;2022-08-25T01:35:39;3.95;;;1.50;;
14294;SDS011;7231;59.370;18.016;2022-08-25T01:38:10;6.68;;;1.52;;
14294;SDS011;7231;59.370;18.016;2022-08-25T01:40:38;6.93;;;1.80;;
14294;SDS011;7231;59.370;18.016;2022-08-25T01:43:11;5.85;;;1.90;;
14294;SDS011;7231;59.370;18.016;2022-08-25T01:45:44;4.75;;;1.83;;
14294;SDS011;7231;59.370;18.016;2022-08-25T01:48:14;4.15;;;1.90;;
14294;SDS011;7231;59.370;18.016;2022-08-25T01:50:44;3.70;;;1.50;;
14294;SDS011;7231;59.370;18.016;2022-08-25T01:53:17;6.45;;;1.55;;
14294;SDS011;7231;59.370;18.016;2022-08-25T01:55:48;5.03;;;1.60;;
14294;SDS011;7231;59.370;18.016;2022-08-25T01:58:28;5.85;;;1.60;;
14294;SDS011;7231;59.370;18.016;2022-08-25T02:00:59;5.70;;;1.70;;
14294;SDS011;7231;59.370;18.016;2022-08-25T02:03:35;4.55;;;1.60;;
14294;SDS011;7231;59.370;18.016;2022-08-25T02:06:07;6.85;;;1.65;;
14294;SDS011;7231;59.370;18.016;2022-08-25T02:08:39;3.47;;;1.70;;
14294;SDS011;7231;59.370;18.016;2022-08-25T02:11:09;5.28;;;1.70;;
14294;SDS011;7231;59.370;18.016;2022-08-25T02:13:38;3.33;;;1.80;;
14294;SDS011;7231;59.370;18.016;2022-08-25T02:16:07;5.45;;;1.58;;
14294;SDS011;7231;59.370;18.016;2022-08-25T02:18:37;5.18;;;1.77;;
14294;SDS011;7231;59.370;18.016;2022-08-25T02:21:05;7.13;;;1.95;;
14294;SDS011;7231;59.370;18.016;2022-08-25T02:23:33;8.52;;;1.80;;
14294;SDS011;7231;59.370;18.016;2022-08-25T02:26:03;6.85;;;1.88;;
14294;SDS011;7231;59.370;18.016;2022-08-25T02:28:31;5.47;;;1.77;;
14294;SDS011;7231;59.370;18.016;2022-08-25T02:30:59;5.43;;;1.80;;
14294;SDS011;7231;59.370;18.016;2022-08-25T02:33:28;4.13;;;1.55;;
14294;SDS011;7231;59.370;18.016;2022-08-25T02:35:59;9.52;;;2.08;;
14294;SDS011;7231;59.370;18.016;2022-08-25T02:38:28;4.72;;;1.38;;
14294;SDS011;7231;59.370;18.016;2022-08-25T02:40:56;7.22;;;2.05;;
14294;SDS011;7231;59.370;18.016;2022-08-25T02:43:27;2.38;;;1.35;;
14294;SDS011;7231;59.370;18.016;2022-08-25T02:45:55;5.32;;;1.70;;
14294;SDS011;7231;59.370;18.016;2022-08-25T02:48:24;7.97;;;1.73;;
14294;SDS011;7231;59.370;18.016;2022-08-25T02:50:54;2.47;;;1.30;;
14294;SDS011;7231;59.370;18.016;2022-08-25T02:53:26;4.60;;;1.50;;
14294;SDS011;7231;59.370;18.016;2022-08-25T02:55:55;5.07;;;1.60;;
14294;SDS011;7231;59.370;18.016;2022-08-25T02:58:23;2.95;;;1.55;;
14294;SDS011;7231;59.370;18.016;2022-08-25T03:00:53;4.07;;;1.80;;
14294;SDS011;7231;59.370;18.016;2022-08-25T03:03:23;5.00;;;1.50;;
14294;SDS011;7231;59.370;18.016;2022-08-25T03:05:51;4.13;;;1.80;;
14294;SDS011;7231;59.370;18.016;2022-08-25T03:08:20;3.78;;;1.50;;
14294;SDS011;7231;59.370;18.016;2022-08-25T03:10:48;4.53;;;1.70;;
14294;SDS011;7231;59.370;18.016;2022-08-25T03:13:17;2.92;;;1.60;;
14294;SDS011;7231;59.370;18.016;2022-08-25T03:15:45;4.80;;;1.75;;
14294;SDS011;7231;59.370;18.016;2022-08-25T03:18:16;2.95;;;1.52;;
14294;SDS011;7231;59.370;18.016;2022-08-25T03:20:44;3.00;;;1.50;;
14294;SDS011;7231;59.370;18.016;2022-08-25T03:23:12;6.15;;;1.70;;
14294;SDS011;7231;59.370;18.016;2022-08-25T03:25:41;3.28;;;1.33;;
14294;SDS011;7231;59.370;18.016;2022-08-25T03:28:27;4.65;;;1.42;;
14294;SDS011;7231;59.370;18.016;2022-08-25T03:30:56;5.65;;;1.60;;
14294;SDS011;7231;59.370;18.016;2022-08-25T03:33:27;4.10;;;1.73;;
14294;SDS011;7231;59.370;18.016;2022-08-25T03:35:56;2.53;;;1.60;;
14294;SDS011;7231;59.370;18.016;2022-08-25T03:38:25;5.20;;;1.63;;
14294;SDS011;7231;59.370;18.016;2022-08-25T03:40:54;1.80;;;1.30;;
14294;SDS011;7231;59.370;18.016;2022-08-25T03:43:22;3.95;;;1.52;;
14294;SDS011;7231;59.370;18.016;2022-08-25T03:45:50;4.10;;;1.83;;
14294;SDS011;7231;59.370;18.016;2022-08-25T03:48:18;3.40;;;1.45;;
14294;SDS011;7231;59.370;18.016;2022-08-25T03:50:49;1.65;;;1.30;;
14294;SDS011;7231;59.370;18.016;2022-08-25T03:53:20;3.20;;;1.52;;
14294;SDS011;7231;59.370;18.016;2022-08-25T03:55:48;5.85;;;1.58;;
14294;SDS011;7231;59.370;18.016;2022-08-25T03:58:16;4.78;;;1.65;;
14294;SDS011;7231;59.370;18.016;2022-08-25T04:00:45;3.40;;;1.40;;
14294;SDS011;7231;59.370;18.016;2022-08-25T04:03:13;2.25;;;1.52;;
14294;SDS011;7231;59.370;18.016;2022-08-25T04:05:41;5.95;;;1.50;;
14294;SDS011;7231;59.370;18.016;2022-08-25T04:08:11;7.82;;;1.77;;
14294;SDS011;7231;59.370;18.016;2022-08-25T04:10:40;4.75;;;1.52;;
14294;SDS011;7231;59.370;18.016;2022-08-25T04:13:08;2.47;;;1.55;;
14294;SDS011;7231;59.370;18.016;2022-08-25T04:15:40;1.70;;;1.50;;
14294;SDS011;7231;59.370;18.016;2022-08-25T04:18:09;2.78;;;1.50;;
14294;SDS011;7231;59.370;18.016;2022-08-25T04:20:38;5.32;;;1.80;;
14294;SDS011;7231;59.370;18.016;2022-08-25T04:23:13;3.65;;;1.63;;
14294;SDS011;7231;59.370;18.016;2022-08-25T04:25:41;3.80;;;1.55;;
14294;SDS011;7231;59.370;18.016;2022-08-25T04:28:11;3.90;;;1.80;;
14294;SDS011;7231;59.370;18.016;2022-08-25T04:30:40;3.30;;;1.70;;
14294;SDS011;7231;59.370;18.016;2022-08-25T04:33:09;3.58;;;1.75;;
14294;SDS011;7231;59.370;18.016;2022-08-25T04:35:38;2.88;;;1.80;;
14294;SDS011;7231;59.370;18.016;2022-08-25T04:38:06;4.20;;;1.40;;
14294;SDS011;7231;59.370;18.016;2022-08-25T04:40:36;3.75;;;2.13;;
14294;SDS011;7231;59.370;18.016;2022-08-25T04:43:04;4.30;;;1.80;;
14294;SDS011;7231;59.370;18.016;2022-08-25T04:45:35;4.15;;;1.80;;
14294;SDS011;7231;59.370;18.016;2022-08-25T04:48:03;3.95;;;2.05;;
14294;SDS011;7231;59.370;18.016;2022-08-25T04:50:32;4.28;;;1.65;;
14294;SDS011;7231;59.370;18.016;2022-08-25T04:53:00;3.30;;;1.83;;
14294;SDS011;7231;59.370;18.016;2022-08-25T04:55:28;5.80;;;1.92;;
14294;SDS011;7231;59.370;18.016;2022-08-25T04:57:57;4.50;;;1.92;;
14294;SDS011;7231;59.370;18.016;2022-08-25T05:00:25;3.03;;;1.90;;
14294;SDS011;7231;59.370;18.016;2022-08-25T05:02:53;3.40;;;2.20;;
14294;SDS011;7231;59.370;18.016;2022-08-25T05:05:21;2.25;;;1.70;;
14294;SDS011;7231;59.370;18.016;2022-08-25T05:07:50;1.65;;;1.50;;
14294;SDS011;7231;59.370;18.016;2022-08-25T05:10:18;2.45;;;1.50;;
14294;SDS011;7231;59.370;18.016;2022-08-25T05:12:47;1.92;;;1.60;;
14294;SDS011;7231;59.370;18.016;2022-08-25T05:15:17;5.00;;;1.90;;
14294;SDS011;7231;59.370;18.016;2022-08-25T05:18:03;3.10;;;1.67;;
14294;SDS011;7231;59.370;18.016;2022-08-25T05:20:31;2.40;;;1.58;;
14294;SDS011;7231;59.370;18.016;2022-08-25T05:23:02;2.97;;;1.80;;
14294;SDS011;7231;59.370;18.016;2022-08-25T05:25:33;3.53;;;1.40;;
14294;SDS011;7231;59.370;18.016;2022-08-25T05:28:01;2.13;;;1.10;;
14294;SDS011;7231;59.370;18.016;2022-08-25T05:30:31;1.20;;;0.95;;
14294;SDS011;7231;59.370;18.016;2022-08-25T05:33:00;2.58;;;1.27;;
14294;SDS011;7231;59.370;18.016;2022-08-25T05:35:28;2.75;;;1.20;;
14294;SDS011;7231;59.370;18.016;2022-08-25T05:37:56;2.83;;;1.20;;
14294;SDS011;7231;59.370;18.016;2022-08-25T05:40:24;2.55;;;1.15;;
14294;SDS011;7231;59.370;18.016;2022-08-25T05:42:52;2.38;;;1.33;;
14294;SDS011;7231;59.370;18.016;2022-08-25T05:45:20;3.45;;;1.20;;
14294;SDS011;7231;59.370;18.016;2022-08-25T05:47:51;3.10;;;1.10;;
14294;SDS011;7231;59.370;18.016;2022-08-25T05:50:19;2.28;;;1.00;;
14294;SDS011;7231;59.370;18.016;2022-08-25T05:52:47;1.33;;;1.00;;
14294;SDS011;7231;59.370;18.016;2022-08-25T05:55:15;2.65;;;1.00;;
14294;SDS011;7231;59.370;18.016;2022-08-25T05:57:43;1.90;;;0.90;;
14294;SDS011;7231;59.370;18.016;2022-08-25T06:00:11;3.78;;;1.00;;
14294;SDS011;7231;59.370;18.016;2022-08-25T06:02:40;7.50;;;1.85;;
14294;SDS011;7231;59.370;18.016;2022-08-25T06:05:08;1.90;;;1.00;;
14294;SDS011;7231;59.370;18.016;2022-08-25T06:07:38;2.65;;;0.88;;
14294;SDS011;7231;59.370;18.016;2022-08-25T06:10:08;2.28;;;1.00;;
14294;SDS011;7231;59.370;18.016;2022-08-25T06:12:39;2.13;;;0.82;;
14294;SDS011;7231;59.370;18.016;2022-08-25T06:15:10;2.55;;;1.20;;
14294;SDS011;7231;59.370;18.016;2022-08-25T06:17:40;1.52;;;0.93;;
14294;SDS011;7231;59.370;18.016;2022-08-25T06:20:11;1.48;;;0.85;;
14294;SDS011;7231;59.370;18.016;2022-08-25T06:22:41;3.83;;;0.85;;
14294;SDS011;7231;59.370;18.016;2022-08-25T06:25:10;1.17;;;0.93;;
14294;SDS011;7231;59.370;18.016;2022-08-25T06:27:39;4.93;;;1.10;;
14294;SDS011;7231;59.370;18.016;2022-08-25T06:30:09;2.35;;;0.90;;
14294;SDS011;7231;59.370;18.016;2022-08-25T06:32:42;3.47;;;0.95;;
14294;SDS011;7231;59.370;18.016;2022-08-25T06:35:15;2.30;;;0.82;;
14294;SDS011;7231;59.370;18.016;2022-08-25T06:37:45;2.90;;;0.93;;
14294;SDS011;7231;59.370;18.016;2022-08-25T06:40:14;2.17;;;1.10;;
14294;SDS011;7231;59.370;18.016;2022-08-25T06:42:46;0.82;;;0.82;;
14294;SDS011;7231;59.370;18.016;2022-08-25T06:45:15;3.60;;;1.08;;
14294;SDS011;7231;59.370;18.016;2022-08-25T06:47:43;1.30;;;0.90;;
14294;SDS011;7231;59.370;18.016;2022-08-25T06:50:13;1.73;;;1.08;;
14294;SDS011;7231;59.370;18.016;2022-08-25T06:52:41;1.92;;;1.10;;
14294;SDS011;7231;59.370;18.016;2022-08-25T06:55:09;1.70;;;0.93;;
14294;SDS011;7231;59.370;18.016;2022-08-25T06:57:37;3.63;;;0.85;;
14294;SDS011;7231;59.370;18.016;2022-08-25T07:00:06;4.25;;;0.98;;
14294;SDS011;7231;59.370;18.016;2022-08-25T07:02:37;1.45;;;0.93;;
14294;SDS011;7231;59.370;18.016;2022-08-25T07:05:06;1.42;;;0.90;;
14294;SDS011;7231;59.370;18.016;2022-08-25T07:07:40;1.77;;;1.33;;
14294;SDS011;7231;59.370;18.016;2022-08-25T07:10:10;3.17;;;0.98;;
14294;SDS011;7231;59.370;18.016;2022-08-25T07:12:44;3.15;;;0.95;;
14294;SDS011;7231;59.370;18.016;2022-08-25T07:15:12;1.52;;;0.80;;
14294;SDS011;7231;59.370;18.016;2022-08-25T07:17:46;1.70;;;0.80;;
14294;SDS011;7231;59.370;18.016;2022-08-25T07:20:15;3.65;;;0.90;;
14294;SDS011;7231;59.370;18.016;2022-08-25T07:22:46;1.60;;;0.70;;
14294;SDS011;7231;59.370;18.016;2022-08-25T07:25:14;2.58;;;0.75;;
14294;SDS011;7231;59.370;18.016;2022-08-25T07:27:43;2.47;;;0.80;;
14294;SDS011;7231;59.370;18.016;2022-08-25T07:30:11;4.30;;;0.88;;
14294;SDS011;7231;59.370;18.016;2022-08-25T07:32:40;1.42;;;0.70;;
14294;SDS011;7231;59.370;18.016;2022-08-25T07:35:08;1.40;;;0.60;;
14294;SDS011;7231;59.370;18.016;2022-08-25T07:37:47;0.98;;;0.70;;
14294;SDS011;7231;59.370;18.016;2022-08-25T07:40:19;3.58;;;0.88;;
14294;SDS011;7231;59.370;18.016;2022-08-25T07:42:49;1.52;;;0.73;;
14294;SDS011;7231;59.370;18.016;2022-08-25T07:45:19;1.40;;;0.75;;
14294;SDS011;7231;59.370;18.016;2022-08-25T07:47:51;2.03;;;0.55;;
14294;SDS011;7231;59.370;18.016;2022-08-25T07:50:19;3.13;;;0.70;;
14294;SDS011;7231;59.370;18.016;2022-08-25T07:52:49;0.95;;;0.75;;
14294;SDS011;7231;59.370;18.016;2022-08-25T07:55:21;1.67;;;0.73;;
14294;SDS011;7231;59.370;18.016;2022-08-25T07:57:50;1.20;;;0.60;;
14294;SDS011;7231;59.370;18.016;2022-08-25T08:00:27;1.33;;;0.60;;
14294;SDS011;7231;59.370;18.016;2022-08-25T08:02:59;0.82;;;0.60;;
14294;SDS011;7231;59.370;18.016;2022-08-25T08:05:29;1.02;;;0.57;;
14294;SDS011;7231;59.370;18.016;2022-08-25T08:07:59;2.47;;;0.63;;
14294;SDS011;7231;59.370;18.016;2022-08-25T08:10:28;2.20;;;0.57;;
14294;SDS011;7231;59.370;18.016;2022-08-25T08:13:16;3.22;;;0.45;;
14294;SDS011;7231;59.370;18.016;2022-08-25T08:15:46;0.63;;;0.50;;
14294;SDS011;7231;59.370;18.016;2022-08-25T08:18:14;0.80;;;0.45;;
14294;SDS011;7231;59.370;18.016;2022-08-25T08:20:44;4.53;;;0.60;;
14294;SDS011;7231;59.370;18.016;2022-08-25T08:23:14;0.73;;;0.40;;
14294;SDS011;7231;59.370;18.016;2022-08-25T08:25:43;1.10;;;0.43;;
14294;SDS011;7231;59.370;18.016;2022-08-25T08:28:11;0.60;;;0.40;;
14294;SDS011;7231;59.370;18.016;2022-08-25T08:30:39;2.30;;;0.70;;
14294;SDS011;7231;59.370;18.016;2022-08-25T08:33:19;1.65;;;0.60;;
14294;SDS011;7231;59.370;18.016;2022-08-25T08:35:54;0.45;;;0.40;;
14294;SDS011;7231;59.370;18.016;2022-08-25T08:38:25;0.88;;;0.60;;
14294;SDS011;7231;59.370;18.016;2022-08-25T08:40:57;2.00;;;0.80;;
14294;SDS011;7231;59.370;18.016;2022-08-25T08:44:24;2.15;;;0.70;;
14294;SDS011;7231;59.370;18.016;2022-08-25T08:46:58;1.38;;;0.50;;
14294;SDS011;7231;59.370;18.016;2022-08-25T08:49:36;1.30;;;0.55;;
14294;SDS011;7231;59.370;18.016;2022-08-25T08:52:16;1.27;;;0.40;;
14294;SDS011;7231;59.370;18.016;2022-08-25T08:54:53;1.40;;;0.60;;
14294;SDS011;7231;59.370;18.016;2022-08-25T08:57:30;1.95;;;0.50;;
14294;SDS011;7231;59.370;18.016;2022-08-25T09:00:05;0.88;;;0.50;;
14294;SDS011;7231;59.370;18.016;2022-08-25T09:02:36;1.10;;;0.57;;
14294;SDS011;7231;59.370;18.016;2022-08-25T09:05:17;0.80;;;0.45;;
14294;SDS011;7231;59.370;18.016;2022-08-25T09:07:49;1.98;;;0.40;;
14294;SDS011;7231;59.370;18.016;2022-08-25T09:10:23;0.93;;;0.50;;
14294;SDS011;7231;59.370;18.016;2022-08-25T09:12:59;0.90;;;0.52;;
14294;SDS011;7231;59.370;18.016;2022-08-25T09:15:40;2.28;;;0.40;;
14294;SDS011;7231;59.370;18.016;2022-08-25T09:19:02;0.98;;;0.50;;
14294;SDS011;7231;59.370;18.016;2022-08-25T09:21:50;2.78;;;1.80;;
14294;SDS011;7231;59.370;18.016;2022-08-25T09:24:27;1.55;;;0.68;;
14294;SDS011;7231;59.370;18.016;2022-08-25T09:27:12;1.88;;;1.00;;
14294;SDS011;7231;59.370;18.016;2022-08-25T09:29:52;4.32;;;0.70;;
14294;SDS011;7231;59.370;18.016;2022-08-25T09:32:26;0.50;;;0.40;;
14294;SDS011;7231;59.370;18.016;2022-08-25T09:34:57;2.05;;;0.40;;
14294;SDS011;7231;59.370;18.016;2022-08-25T09:37:28;2.40;;;0.60;;
14294;SDS011;7231;59.370;18.016;2022-08-25T09:39:57;2.40;;;0.90;;
14294;SDS011;7231;59.370;18.016;2022-08-25T09:45:34;1.08;;;0.50;;
14294;SDS011;7231;59.370;18.016;2022-08-25T09:48:24;0.60;;;0.50;;
14294;SDS011;7231;59.370;18.016;2022-08-25T09:50:57;1.35;;;0.57;;
14294;SDS011;7231;59.370;18.016;2022-08-25T09:53:28;1.30;;;0.60;;
14294;SDS011;7231;59.370;18.016;2022-08-25T09:56:00;1.35;;;0.70;;
14294;SDS011;7231;59.370;18.016;2022-08-25T09:58:33;2.08;;;0.98;;
14294;SDS011;7231;59.370;18.016;2022-08-25T10:01:03;1.58;;;0.65;;
14294;SDS011;7231;59.370;18.016;2022-08-25T10:03:51;0.82;;;0.50;;
14294;SDS011;7231;59.370;18.016;2022-08-25T10:06:22;1.00;;;0.70;;
14294;SDS011;7231;59.370;18.016;2022-08-25T10:08:52;1.98;;;0.85;;
14294;SDS011;7231;59.370;18.016;2022-08-25T10:14:17;4.50;;;0.90;;
14294;SDS011;7231;59.370;18.016;2022-08-25T10:16:50;4.10;;;0.90;;
14294;SDS011;7231;59.370;18.016;2022-08-25T10:19:23;0.98;;;0.70;;
14294;SDS011;7231;59.370;18.016;2022-08-25T10:22:04;1.30;;;0.50;;
14294;SDS011;7231;59.370;18.016;2022-08-25T10:24:37;1.33;;;0.63;;
14294;SDS011;7231;59.370;18.016;2022-08-25T10:27:13;0.80;;;0.60;;
14294;SDS011;7231;59.370;18.016;2022-08-25T10:30:02;1.63;;;0.93;;
14294;SDS011;7231;59.370;18.016;2022-08-25T10:32:38;9.63;;;1.48;;
14294;SDS011;7231;59.370;18.016;2022-08-25T10:35:17;7.93;;;1.60;;
14294;SDS011;7231;59.370;18.016;2022-08-25T10:37:52;1.80;;;0.40;;
14294;SDS011;7231;59.370;18.016;2022-08-25T10:40:30;3.58;;;0.55;;
14294;SDS011;7231;59.370;18.016;2022-08-25T10:43:06;1.45;;;0.70;;
14294;SDS011;7231;59.370;18.016;2022-08-25T10:45:46;1.83;;;0.50;;
14294;SDS011;7231;59.370;18.016;2022-08-25T10:48:24;1.33;;;0.30;;
14294;SDS011;7231;59.370;18.016;2022-08-25T10:51:07;0.93;;;0.60;;
14294;SDS011;7231;59.370;18.016;2022-08-25T10:53:53;4.60;;;0.90;;
14294;SDS011;7231;59.370;18.016;2022-08-25T10:56:28;3.25;;;0.80;;
14294;SDS011;7231;59.370;18.016;2022-08-25T10:59:11;1.63;;;0.63;;
14294;SDS011;7231;59.370;18.016;2022-08-25T11:02:02;6.82;;;5.07;;
14294;SDS011;7231;59.370;18.016;2022-08-25T11:04:46;2.08;;;1.20;;
14294;SDS011;7231;59.370;18.016;2022-08-25T11:07:22;2.60;;;0.70;;
14294;SDS011;7231;59.370;18.016;2022-08-25T11:09:54;3.72;;;0.60;;
14294;SDS011;7231;59.370;18.016;2022-08-25T11:12:29;1.00;;;0.50;;
14294;SDS011;7231;59.370;18.016;2022-08-25T11:15:00;3.20;;;0.50;;
14294;SDS011;7231;59.370;18.016;2022-08-25T11:17:37;1.08;;;0.50;;
14294;SDS011;7231;59.370;18.016;2022-08-25T11:20:10;1.95;;;0.50;;
14294;SDS011;7231;59.370;18.016;2022-08-25T11:22:54;2.25;;;0.70;;
14294;SDS011;7231;59.370;18.016;2022-08-25T11:25:37;1.58;;;0.75;;
14294;SDS011;7231;59.370;18.016;2022-08-25T11:28:10;1.05;;;0.77;;
14294;SDS011;7231;59.370;18.016;2022-08-25T11:30:41;1.15;;;0.50;;
14294;SDS011;7231;59.370;18.016;2022-08-25T11:33:13;1.98;;;0.52;;
14294;SDS011;7231;59.370;18.016;2022-08-25T11:35:46;1.35;;;0.50;;
14294;SDS011;7231;59.370;18.016;2022-08-25T11:38:21;0.95;;;0.40;;
14294;SDS011;7231;59.370;18.016;2022-08-25T11:41:06;1.67;;;0.55;;
14294;SDS011;7231;59.370;18.016;2022-08-25T11:43:51;4.00;;;0.80;;
14294;SDS011;7231;59.370;18.016;2022-08-25T11:46:39;1.98;;;0.50;;
14294;SDS011;7231;59.370;18.016;2022-08-25T11:49:28;1.13;;;0.60;;
14294;SDS011;7231;59.370;18.016;2022-08-25T11:52:36;1.02;;;0.50;;
14294;SDS011;7231;59.370;18.016;2022-08-25T11:55:12;0.77;;;0.47;;
14294;SDS011;7231;59.370;18.016;2022-08-25T11:57:49;1.55;;;0.70;;
14294;SDS011;7231;59.370;18.016;2022-08-25T12:00:35;2.00;;;0.55;;
14294;SDS011;7231;59.370;18.016;2022-08-25T12:06:17;1.42;;;0.70;;
14294;SDS011;7231;59.370;18.016;2022-08-25T12:08:49;1.73;;;0.45;;
14294;SDS011;7231;59.370;18.016;2022-08-25T12:11:42;2.80;;;0.60;;
14294;SDS011;7231;59.370;18.016;2022-08-25T12:14:14;0.65;;;0.50;;
14294;SDS011;7231;59.370;18.016;2022-08-25T12:16:59;1.77;;;0.68;;
14294;SDS011;7231;59.370;18.016;2022-08-25T12:19:49;0.98;;;0.50;;
14294;SDS011;7231;59.370;18.016;2022-08-25T12:22:40;0.75;;;0.55;;
14294;SDS011;7231;59.370;18.016;2022-08-25T12:25:25;1.63;;;0.57;;
14294;SDS011;7231;59.370;18.016;2022-08-25T12:28:04;1.38;;;0.50;;
14294;SDS011;7231;59.370;18.016;2022-08-25T12:30:45;3.13;;;0.60;;
14294;SDS011;7231;59.370;18.016;2022-08-25T12:33:27;0.80;;;0.40;;
14294;SDS011;7231;59.370;18.016;2022-08-25T12:36:05;0.90;;;0.43;;
14294;SDS011;7231;59.370;18.016;2022-08-25T12:38:39;3.28;;;0.80;;
14294;SDS011;7231;59.370;18.016;2022-08-25T12:41:18;1.85;;;0.70;;
14294;SDS011;7231;59.370;18.016;2022-08-25T12:43:50;1.20;;;0.45;;
14294;SDS011;7231;59.370;18.016;2022-08-25T12:46:32;1.77;;;0.40;;
14294;SDS011;7231;59.370;18.016;2022-08-25T12:49:04;1.83;;;0.50;;
14294;SDS011;7231;59.370;18.016;2022-08-25T12:51:47;0.88;;;0.50;;
14294;SDS011;7231;59.370;18.016;2022-08-25T12:54:27;1.90;;;0.60;;
14294;SDS011;7231;59.370;18.016;2022-08-25T13:00:10;0.90;;;0.50;;
14294;SDS011;7231;59.370;18.016;2022-08-25T13:06:02;1.35;;;0.57;;
14294;SDS011;7231;59.370;18.016;2022-08-25T13:12:04;1.13;;;0.40;;
14294;SDS011;7231;59.370;18.016;2022-08-25T13:14:40;2.50;;;0.70;;
14294;SDS011;7231;59.370;18.016;2022-08-25T13:17:10;1.25;;;0.43;;
14294;SDS011;7231;59.370;18.016;2022-08-25T13:19:38;0.93;;;0.50;;
14294;SDS011;7231;59.370;18.016;2022-08-25T13:22:09;0.68;;;0.40;;
14294;SDS011;7231;59.370;18.016;2022-08-25T13:24:42;3.05;;;0.68;;
14294;SDS011;7231;59.370;18.016;2022-08-25T13:27:19;0.90;;;0.60;;
14294;SDS011;7231;59.370;18.016;2022-08-25T13:29:53;4.72;;;2.00;;
14294;SDS011;7231;59.370;18.016;2022-08-25T13:32:25;0.50;;;0.50;;
14294;SDS011;7231;59.370;18.016;2022-08-25T13:35:07;1.05;;;0.60;;
14294;SDS011;7231;59.370;18.016;2022-08-25T13:37:39;1.88;;;0.70;;
14294;SDS011;7231;59.370;18.016;2022-08-25T13:40:08;2.50;;;0.60;;
14294;SDS011;7231;59.370;18.016;2022-08-25T13:42:39;0.70;;;0.50;;
14294;SDS011;7231;59.370;18.016;2022-08-25T13:45:19;1.92;;;0.60;;
14294;SDS011;7231;59.370;18.016;2022-08-25T13:47:49;2.40;;;0.55;;
14294;SDS011;7231;59.370;18.016;2022-08-25T13:50:28;1.17;;;0.55;;
14294;SDS011;7231;59.370;18.016;2022-08-25T13:53:00;0.63;;;0.50;;
14294;SDS011;7231;59.370;18.016;2022-08-25T13:55:32;2.60;;;0.70;;
14294;SDS011;7231;59.370;18.016;2022-08-25T13:58:19;0.75;;;0.60;;
14294;SDS011;7231;59.370;18.016;2022-08-25T14:00:59;1.38;;;0.60;;
14294;SDS011;7231;59.370;18.016;2022-08-25T14:03:55;0.80;;;0.55;;
14294;SDS011;7231;59.370;18.016;2022-08-25T14:06:44;1.15;;;0.60;;
14294;SDS011;7231;59.370;18.016;2022-08-25T14:09:14;3.08;;;0.90;;
14294;SDS011;7231;59.370;18.016;2022-08-25T14:11:55;2.92;;;0.77;;
14294;SDS011;7231;59.370;18.016;2022-08-25T14:14:32;2.25;;;0.70;;
14294;SDS011;7231;59.370;18.016;2022-08-25T14:17:03;1.48;;;0.60;;
14294;SDS011;7231;59.370;18.016;2022-08-25T14:19:54;2.88;;;0.68;;
14294;SDS011;7231;59.370;18.016;2022-08-25T14:22:23;1.77;;;0.70;;
14294;SDS011;7231;59.370;18.016;2022-08-25T14:24:52;2.10;;;0.55;;
14294;SDS011;7231;59.370;18.016;2022-08-25T14:27:21;1.00;;;0.40;;
14294;SDS011;7231;59.370;18.016;2022-08-25T14:29:50;1.55;;;0.50;;
14294;SDS011;7231;59.370;18.016;2022-08-25T14:32:18;2.47;;;0.70;;
14294;SDS011;7231;59.370;18.016;2022-08-25T14:34:46;1.58;;;0.68;;
14294;SDS011;7231;59.370;18.016;2022-08-25T14:37:15;1.60;;;0.80;;
14294;SDS011;7231;59.370;18.016;2022-08-25T14:39:50;2.20;;;0.60;;
14294;SDS011;7231;59.370;18.016;2022-08-25T14:42:20;0.80;;;0.50;;
14294;SDS011;7231;59.370;18.016;2022-08-25T14:44:52;1.13;;;0.55;;
14294;SDS011;7231;59.370;18.016;2022-08-25T14:47:21;1.10;;;0.60;;
14294;SDS011;7231;59.370;18.016;2022-08-25T14:49:50;1.13;;;0.45;;
14294;SDS011;7231;59.370;18.016;2022-08-25T14:52:18;3.22;;;0.50;;
14294;SDS011;7231;59.370;18.016;2022-08-25T14:54:53;0.57;;;0.50;;
14294;SDS011;7231;59.370;18.016;2022-08-25T14:57:22;0.98;;;0.60;;
14294;SDS011;7231;59.370;18.016;2022-08-25T14:59:52;2.42;;;0.85;;
14294;SDS011;7231;59.370;18.016;2022-08-25T15:02:21;1.30;;;0.50;;
14294;SDS011;7231;59.370;18.016;2022-08-25T15:04:56;0.73;;;0.60;;
14294;SDS011;7231;59.370;18.016;2022-08-25T15:07:27;2.25;;;0.60;;
14294;SDS011;7231;59.370;18.016;2022-08-25T15:10:15;3.90;;;0.90;;
14294;SDS011;7231;59.370;18.016;2022-08-25T15:12:47;1.40;;;0.80;;
14294;SDS011;7231;59.370;18.016;2022-08-25T15:15:20;1.08;;;0.50;;
14294;SDS011;7231;59.370;18.016;2022-08-25T15:17:52;1.90;;;0.60;;
14294;SDS011;7231;59.370;18.016;2022-08-25T15:20:24;2.15;;;0.57;;
14294;SDS011;7231;59.370;18.016;2022-08-25T15:22:54;2.55;;;0.80;;
14294;SDS011;7231;59.370;18.016;2022-08-25T15:25:22;2.50;;;0.88;;
14294;SDS011;7231;59.370;18.016;2022-08-25T15:27:50;1.20;;;0.70;;
14294;SDS011;7231;59.370;18.016;2022-08-25T15:30:18;1.02;;;0.60;;
14294;SDS011;7231;59.370;18.016;2022-08-25T15:32:57;1.02;;;0.60;;
14294;SDS011;7231;59.370;18.016;2022-08-25T15:35:26;2.45;;;0.75;;
14294;SDS011;7231;59.370;18.016;2022-08-25T15:37:55;1.70;;;0.70;;
14294;SDS011;7231;59.370;18.016;2022-08-25T15:40:23;1.13;;;0.60;;